createdAt,value
2019-01-22T00:02:16.055Z,64.10
2019-01-22T00:04:44.514Z,59.40
2019-01-22T00:07:13.385Z,69.47
2019-01-22T00:09:42.018Z,66.03
2019-01-22T00:12:10.491Z,67.77
2019-01-22T00:14:38.987Z,64.17
2019-01-22T00:17:07.454Z,63.90
2019-01-22T00:19:35.916Z,67.77
2019-01-22T00:22:04.672Z,65.77
2019-01-22T00:24:33.323Z,64.07
2019-01-22T00:27:01.795Z,67.70
2019-01-22T00:29:30.293Z,63.73
2019-01-22T00:31:58.831Z,65.47
2019-01-22T00:34:27.294Z,62.50
2019-01-22T00:36:55.799Z,51.67
2019-01-22T00:39:24.267Z,64.30
2019-01-22T00:41:52.736Z,62.60
2019-01-22T00:44:21.243Z,70.13
2019-01-22T00:46:49.725Z,61.20
2019-01-22T00:49:18.190Z,60.20
2019-01-22T00:51:47.079Z,69.87
2019-01-22T00:54:15.537Z,59.00
2019-01-22T00:56:44.015Z,61.40
2019-01-22T00:59:12.499Z,60.53
2019-01-22T01:01:40.960Z,61.63
2019-01-22T01:04:09.421Z,69.47
2019-01-22T01:06:38.217Z,66.03
2019-01-22T01:09:08.181Z,60.03
2019-01-22T01:11:36.637Z,59.37
2019-01-22T01:14:05.720Z,60.70
2019-01-22T01:16:34.175Z,68.80
2019-01-22T01:19:02.647Z,67.57
2019-01-22T01:21:31.243Z,57.27
2019-01-22T01:23:59.711Z,68.47
2019-01-22T01:26:28.184Z,62.63
2019-01-22T01:28:56.683Z,60.87
2019-01-22T01:31:25.145Z,60.60
2019-01-22T01:33:53.617Z,66.93
2019-01-22T01:36:22.123Z,60.17
2019-01-22T01:38:50.590Z,59.23
2019-01-22T01:41:19.052Z,60.47
2019-01-22T01:43:47.555Z,71.40
2019-01-22T01:46:16.022Z,72.97
2019-01-22T01:48:44.491Z,62.10
2019-01-22T01:51:13.016Z,67.87
2019-01-22T01:53:41.480Z,56.33
2019-01-22T01:56:09.950Z,54.97
2019-01-22T01:58:38.444Z,51.03
2019-01-22T02:01:06.904Z,74.47
2019-01-22T02:03:35.366Z,60.97
2019-01-22T02:06:03.864Z,65.13
2019-01-22T02:08:32.321Z,63.27
2019-01-22T02:11:01.114Z,66.93
2019-01-22T02:13:29.949Z,55.47
2019-01-22T02:16:07.524Z,59.77
2019-01-22T02:18:51.257Z,62.17
2019-01-22T02:21:48.226Z,68.67
2019-01-22T02:24:31.505Z,59.77
2019-01-22T02:27:03.147Z,68.70
2019-01-22T02:29:54.340Z,60.93
2019-01-22T02:32:32.055Z,71.13
2019-01-22T02:35:03.750Z,74.27
2019-01-22T02:37:44.085Z,63.17
2019-01-22T02:40:21.685Z,76.23
2019-01-22T02:43:10.217Z,66.17
2019-01-22T02:45:56.507Z,75.13
2019-01-22T02:48:46.051Z,65.63
2019-01-22T02:51:23.437Z,52.70
2019-01-22T02:53:55.066Z,60.03
2019-01-22T02:56:38.804Z,76.97
2019-01-22T02:59:22.220Z,75.80
2019-01-22T03:02:05.818Z,57.13
2019-01-22T03:05:07.622Z,60.23
2019-01-22T03:08:00.101Z,73.30
2019-01-22T03:10:37.785Z,72.80
2019-01-22T03:13:12.532Z,66.80
2019-01-22T03:15:59.186Z,58.60
2019-01-22T03:18:45.373Z,62.30
2019-01-22T03:21:28.756Z,61.50
2019-01-22T03:24:03.331Z,78.37
2019-01-22T03:26:57.575Z,73.80
2019-01-22T03:29:34.779Z,86.47
2019-01-22T03:32:21.231Z,62.13
2019-01-22T03:35:18.156Z,76.43
2019-01-22T03:38:04.846Z,58.17
2019-01-22T03:40:56.133Z,61.73
2019-01-22T03:43:50.582Z,61.77
2019-01-22T03:46:31.267Z,60.30
2019-01-22T03:49:19.715Z,60.30
2019-01-22T03:51:54.081Z,65.47
2019-01-22T03:54:43.778Z,57.00
2019-01-22T03:57:33.593Z,60.57
2019-01-22T04:00:02.149Z,68.33
2019-01-22T04:02:31.154Z,59.43
2019-01-22T04:04:59.647Z,56.60
2019-01-22T04:07:28.489Z,58.23
2019-01-22T04:09:58.999Z,67.80
2019-01-22T04:12:27.527Z,66.60
2019-01-22T04:14:56.281Z,70.57
2019-01-22T04:17:24.756Z,68.50
2019-01-22T04:19:54.267Z,69.90
2019-01-22T04:22:25.902Z,60.70
2019-01-22T04:25:02.063Z,81.37
2019-01-22T04:27:36.682Z,74.17
2019-01-22T04:30:24.793Z,71.47
2019-01-22T04:33:01.954Z,85.07
2019-01-22T04:35:42.486Z,72.50
2019-01-22T04:38:17.054Z,81.27
2019-01-22T04:40:54.732Z,69.57
2019-01-22T04:43:37.672Z,76.47
2019-01-22T04:46:12.046Z,82.73
2019-01-22T04:48:55.288Z,65.67
2019-01-22T04:51:42.068Z,81.90
2019-01-22T04:54:16.212Z,67.83
2019-01-22T04:56:47.900Z,70.77
2019-01-22T04:59:52.979Z,74.40
2019-01-22T05:02:27.380Z,67.83
2019-01-22T05:05:17.078Z,70.97
2019-01-22T05:07:48.745Z,78.83
2019-01-22T05:10:38.717Z,78.57
2019-01-22T05:13:10.836Z,85.10
2019-01-22T05:15:45.583Z,77.50
2019-01-22T05:18:35.395Z,96.33
2019-01-22T05:21:31.666Z,74.47
2019-01-22T05:24:26.008Z,81.27
2019-01-22T05:27:16.182Z,73.02
2019-01-22T05:30:10.665Z,85.40
2019-01-22T05:33:03.619Z,74.23
2019-01-22T05:35:47.569Z,64.43
2019-01-22T05:38:34.591Z,76.40
2019-01-22T05:41:20.874Z,79.90
2019-01-22T05:44:09.283Z,69.13
2019-01-22T05:46:58.282Z,59.23
2019-01-22T05:49:38.937Z,64.53
2019-01-22T05:52:32.990Z,49.97
2019-01-22T05:55:13.277Z,62.73
2019-01-22T05:57:45.106Z,70.90
2019-01-22T06:00:31.859Z,74.83
2019-01-22T06:03:02.279Z,69.60
2019-01-22T06:05:49.041Z,58.80
2019-01-22T06:08:26.884Z,66.20
2019-01-22T06:11:04.350Z,53.70
2019-01-22T06:13:38.856Z,63.93
2019-01-22T06:16:16.253Z,74.33
2019-01-22T06:19:09.563Z,64.33
2019-01-22T06:21:43.694Z,62.63
2019-01-22T06:24:34.854Z,68.53
2019-01-22T06:27:09.256Z,59.10
2019-01-22T06:30:02.221Z,50.40
2019-01-22T06:32:33.857Z,57.73
2019-01-22T06:35:11.672Z,49.37
2019-01-22T06:38:03.221Z,66.00
2019-01-22T06:40:37.388Z,70.13
2019-01-22T06:43:28.682Z,65.50
2019-01-22T06:46:03.101Z,59.87
2019-01-22T06:48:37.519Z,59.97
2019-01-22T06:51:27.172Z,54.47
2019-01-22T06:54:07.648Z,59.20
2019-01-22T06:56:42.240Z,73.10
2019-01-22T06:59:16.372Z,59.10
2019-01-22T07:02:15.049Z,67.73
2019-01-22T07:04:46.706Z,65.53
2019-01-22T07:07:44.148Z,57.57
2019-01-22T07:10:30.637Z,50.60
2019-01-22T07:13:17.171Z,60.07
2019-01-22T07:16:12.336Z,62.53
2019-01-22T07:19:00.778Z,60.20
2019-01-22T07:21:38.820Z,62.43
2019-01-22T07:24:25.482Z,69.97
2019-01-22T07:27:02.937Z,58.67
2019-01-22T07:30:04.798Z,75.57
2019-01-22T07:32:42.156Z,61.30
2019-01-22T07:35:19.528Z,74.00
2019-01-22T07:37:51.159Z,62.10
2019-01-22T07:40:25.540Z,59.47
2019-01-22T07:43:15.079Z,64.73
2019-01-22T07:45:55.766Z,77.17
2019-01-22T07:48:27.396Z,85.20
2019-01-22T07:51:19.965Z,59.70
2019-01-22T07:54:09.857Z,65.57
2019-01-22T07:57:07.696Z,73.13
2019-01-22T07:59:39.327Z,80.67
2019-01-22T08:02:35.018Z,77.90
2019-01-22T08:05:10.766Z,74.13
2019-01-22T08:07:52.912Z,56.30
2019-01-22T08:10:45.287Z,64.30
2019-01-22T08:13:33.460Z,63.57
2019-01-22T08:16:41.566Z,67.23
2019-01-22T08:19:25.272Z,71.30
2019-01-22T08:22:13.571Z,75.37
2019-01-22T08:24:51.016Z,65.37
2019-01-22T08:27:30.335Z,79.03
2019-01-22T08:30:01.583Z,88.33
2019-01-22T08:32:38.971Z,98.87
2019-01-22T08:35:28.420Z,80.67
2019-01-22T08:38:21.001Z,77.10
2019-01-22T08:41:29.857Z,84.80
2019-01-22T08:44:03.987Z,79.97
2019-01-22T08:46:52.812Z,96.30
2019-01-22T08:49:36.476Z,88.00
2019-01-22T08:52:20.253Z,88.07
2019-01-22T08:55:09.785Z,96.07
2019-01-22T08:57:53.176Z,68.30
2019-01-22T09:00:30.490Z,77.73
2019-01-22T09:03:21.701Z,69.80
2019-01-22T09:05:59.251Z,87.30
2019-01-22T09:08:39.880Z,77.30
2019-01-22T09:11:17.270Z,96.77
2019-01-22T09:14:08.341Z,84.13
2019-01-22T09:16:51.816Z,78.80
2019-01-22T09:19:32.314Z,83.00
2019-01-22T09:22:32.797Z,85.20
2019-01-22T09:25:16.455Z,77.67
2019-01-22T09:27:48.093Z,70.87
2019-01-22T09:30:36.214Z,53.13
2019-01-22T09:33:07.862Z,61.00
2019-01-22T09:35:42.344Z,54.70
2019-01-22T09:38:11.442Z,52.50
2019-01-22T09:40:39.986Z,79.97
2019-01-22T09:43:09.213Z,70.27
2019-01-22T09:45:37.682Z,65.80
2019-01-22T09:48:06.152Z,65.60
2019-01-22T09:50:34.670Z,72.13
2019-01-22T09:53:03.135Z,61.17
2019-01-22T09:55:31.603Z,70.77
2019-01-22T09:58:00.119Z,72.03
2019-01-22T10:00:28.639Z,53.87
2019-01-22T10:02:57.102Z,53.67
2019-01-22T10:05:25.604Z,69.60
2019-01-22T10:07:54.074Z,60.20
2019-01-22T10:10:23.476Z,49.73
2019-01-22T10:12:51.970Z,52.90
2019-01-22T10:15:21.984Z,52.97
2019-01-22T10:17:50.517Z,61.07
2019-01-22T10:20:21.522Z,64.30
2019-01-22T10:22:50.520Z,69.80
2019-01-22T10:25:18.979Z,61.50
2019-01-22T10:27:47.703Z,58.23
2019-01-22T10:30:21.991Z,55.23
2019-01-22T10:32:50.473Z,47.37
2019-01-22T10:35:18.983Z,54.17
2019-01-22T10:37:47.451Z,54.40
2019-01-22T10:40:18.759Z,43.70
2019-01-22T10:42:47.266Z,45.20
2019-01-22T10:45:17.562Z,40.97
2019-01-22T10:47:46.093Z,39.23
2019-01-22T10:50:20.132Z,38.17
2019-01-22T10:52:48.604Z,39.40
2019-01-22T10:55:17.318Z,29.10
2019-01-22T10:57:45.913Z,36.70
2019-01-22T11:00:23.162Z,33.90
2019-01-22T11:02:51.649Z,30.23
2019-01-22T11:05:26.247Z,39.40
2019-01-22T11:07:54.711Z,42.03
2019-01-22T11:10:23.235Z,43.57
2019-01-22T11:12:51.695Z,40.30
2019-01-22T11:15:20.145Z,38.67
2019-01-22T11:17:48.634Z,36.83
2019-01-22T11:20:22.815Z,40.30
2019-01-22T11:22:51.274Z,53.80
2019-01-22T11:25:21.827Z,46.83
2019-01-22T11:27:50.297Z,40.47
2019-01-22T11:30:24.404Z,30.63
2019-01-22T11:32:52.897Z,39.40
2019-01-22T11:35:23.111Z,37.97
2019-01-22T11:37:52.210Z,43.07
2019-01-22T11:40:29.973Z,35.60
2019-01-22T11:42:58.441Z,47.80
2019-01-22T11:45:26.967Z,41.87
2019-01-22T11:47:55.465Z,40.20
2019-01-22T11:50:23.997Z,36.27
2019-01-22T11:52:52.524Z,39.90
2019-01-22T11:55:21.037Z,42.00
2019-01-22T11:57:49.491Z,40.10
2019-01-22T12:00:31.147Z,39.60
2019-01-22T12:02:59.598Z,35.73
2019-01-22T12:05:28.069Z,48.83
2019-01-22T12:07:56.572Z,47.47
2019-01-22T12:10:25.105Z,43.83
2019-01-22T12:12:53.573Z,40.43
2019-01-22T12:15:22.124Z,51.50
2019-01-22T12:17:50.570Z,44.80
2019-01-22T12:20:24.488Z,53.57
2019-01-22T12:22:53.003Z,41.70
2019-01-22T12:25:21.470Z,51.00
2019-01-22T12:27:49.934Z,48.47
2019-01-22T12:30:21.611Z,39.57
2019-01-22T12:32:51.123Z,42.03
2019-01-22T12:35:19.653Z,58.37
2019-01-22T12:37:48.257Z,38.10
2019-01-22T12:40:21.958Z,37.63
2019-01-22T12:42:50.498Z,36.03
2019-01-22T12:45:22.130Z,29.00
2019-01-22T12:47:50.624Z,27.40
2019-01-22T12:50:25.587Z,32.80
2019-01-22T12:52:51.774Z,30.10
2019-01-22T12:55:20.237Z,28.77
2019-01-22T12:57:48.705Z,25.23
2019-01-22T13:00:26.270Z,33.50
2019-01-22T13:02:54.795Z,29.30
2019-01-22T13:05:32.459Z,44.13
2019-01-22T13:08:00.937Z,47.20
2019-01-22T13:10:29.426Z,35.03
2019-01-22T13:12:57.915Z,32.13
2019-01-22T13:15:26.454Z,26.53
2019-01-22T13:17:54.918Z,33.43
2019-01-22T13:20:23.893Z,26.87
2019-01-22T13:22:52.358Z,19.10
2019-01-22T13:25:20.877Z,28.17
2019-01-22T13:27:49.372Z,27.27
2019-01-22T13:30:20.882Z,32.10
2019-01-22T13:32:49.732Z,28.27
2019-01-22T13:35:18.675Z,30.03
2019-01-22T13:37:47.135Z,28.97
2019-01-22T13:40:16.334Z,43.60
2019-01-22T13:42:44.894Z,50.80
2019-01-22T13:45:33.844Z,32.90
2019-01-22T13:48:04.863Z,31.00
2019-01-22T13:50:33.331Z,40.93
2019-01-22T13:53:01.872Z,34.63
2019-01-22T13:55:32.762Z,40.50
2019-01-22T13:58:01.248Z,53.70
2019-01-22T14:00:30.381Z,40.23
2019-01-22T14:03:00.705Z,36.40
2019-01-22T14:05:29.402Z,41.10
2019-01-22T14:07:57.942Z,37.40
2019-01-22T14:10:26.522Z,35.03
2019-01-22T14:12:56.608Z,40.93
2019-01-22T14:15:36.901Z,42.07
2019-01-22T14:18:06.197Z,36.50
2019-01-22T14:20:34.674Z,36.63
2019-01-22T14:23:03.189Z,35.53
2019-01-22T14:25:31.668Z,43.67
2019-01-22T14:28:00.124Z,33.00
2019-01-22T14:30:31.231Z,37.10
2019-01-22T14:32:59.691Z,40.33
2019-01-22T14:35:28.166Z,44.23
2019-01-22T14:37:56.911Z,36.53
2019-01-22T14:40:25.376Z,47.43
2019-01-22T14:42:53.916Z,49.80
2019-01-22T14:45:23.861Z,43.57
2019-01-22T14:47:52.388Z,42.80
2019-01-22T14:50:29.706Z,50.53
2019-01-22T14:52:58.176Z,42.50
2019-01-22T14:55:26.711Z,45.80
2019-01-22T14:57:55.311Z,57.05
2019-01-22T15:00:25.807Z,50.87
2019-01-22T15:02:54.910Z,55.60
2019-01-22T15:05:23.402Z,52.37
2019-01-22T15:07:51.882Z,48.27
2019-01-22T15:10:20.511Z,53.98
2019-01-22T15:12:55.046Z,58.10
2019-01-22T15:15:23.585Z,51.80
2019-01-22T15:17:52.046Z,50.63
2019-01-22T15:20:25.658Z,55.73
2019-01-22T15:22:54.123Z,56.43
2019-01-22T15:25:22.814Z,56.02
2019-01-22T15:27:51.473Z,58.17
2019-01-22T15:30:23.130Z,55.78
2019-01-22T15:32:51.670Z,50.50
2019-01-22T15:35:20.260Z,53.98
2019-01-22T15:37:48.888Z,52.93
2019-01-22T15:40:20.485Z,60.12
2019-01-22T15:42:49.150Z,68.05
2019-01-22T15:45:17.793Z,56.23
2019-01-22T15:47:46.348Z,59.08
2019-01-22T15:50:17.753Z,60.75
2019-01-22T15:52:46.324Z,65.92
2019-01-22T15:55:20.769Z,61.85
2019-01-22T15:57:49.426Z,76.97
2019-01-22T16:00:20.018Z,82.42
2019-01-22T16:02:48.701Z,77.15
2019-01-22T16:05:17.478Z,70.08
2019-01-22T16:07:46.037Z,100.15
2019-01-22T16:10:14.572Z,77.97
2019-01-22T16:12:43.170Z,69.87
2019-01-22T16:15:16.851Z,69.20
2019-01-22T16:17:45.459Z,69.82
2019-01-22T16:20:16.677Z,77.47
2019-01-22T16:22:45.229Z,75.12
2019-01-22T16:25:14.253Z,70.65
2019-01-22T16:27:42.873Z,82.02
2019-01-22T16:30:16.861Z,72.82
2019-01-22T16:32:45.411Z,82.55
2019-01-22T16:35:16.346Z,76.82
2019-01-22T16:37:45.957Z,68.95
2019-01-22T16:40:16.148Z,73.07
2019-01-22T16:42:45.445Z,65.03
2019-01-22T16:45:19.715Z,72.60
2019-01-22T16:47:48.276Z,81.57
2019-01-22T16:50:16.887Z,70.97
2019-01-22T16:52:45.521Z,78.90
2019-01-22T16:55:19.863Z,82.12
2019-01-22T16:57:48.452Z,92.85
2019-01-22T17:00:20.135Z,87.15
2019-01-22T17:02:48.746Z,80.72
2019-01-22T17:05:17.423Z,80.17
2019-01-22T17:07:45.990Z,77.17
2019-01-22T17:10:19.540Z,74.50
2019-01-22T17:12:48.373Z,73.52
2019-01-22T17:15:17.560Z,83.95
2019-01-22T17:17:46.485Z,79.40
2019-01-22T17:20:20.757Z,76.35
2019-01-22T17:22:49.319Z,79.50
2019-01-22T17:25:17.863Z,72.53
2019-01-22T17:27:46.439Z,64.55
2019-01-22T17:30:17.529Z,71.77
2019-01-22T17:32:47.720Z,71.22
2019-01-22T17:35:16.396Z,68.33
2019-01-22T17:37:45.049Z,62.67
2019-01-22T17:40:16.357Z,78.00
2019-01-22T17:42:45.296Z,70.52
2019-01-22T17:45:14.370Z,68.87
2019-01-22T17:47:42.932Z,69.80
2019-01-22T17:50:13.859Z,65.45
2019-01-22T17:52:42.427Z,53.00
2019-01-22T17:55:12.128Z,72.20
2019-01-22T17:57:40.722Z,64.65
2019-01-22T18:00:18.652Z,64.73
2019-01-22T18:02:47.243Z,74.97
2019-01-22T18:05:20.354Z,62.53
2019-01-22T18:07:48.972Z,64.87
2019-01-22T18:10:20.011Z,61.60
2019-01-22T18:12:49.009Z,65.85
2019-01-22T18:15:17.745Z,62.85
2019-01-22T18:17:46.407Z,58.73
2019-01-22T18:20:17.766Z,59.50
2019-01-22T18:22:46.322Z,69.25
2019-01-22T18:25:15.010Z,60.95
2019-01-22T18:27:43.560Z,55.90
2019-01-22T18:30:25.875Z,62.05
2019-01-22T18:32:54.708Z,58.78
2019-01-22T18:35:38.451Z,54.48
2019-01-22T18:38:07.064Z,68.45
2019-01-22T18:40:35.618Z,63.55
2019-01-22T18:43:04.205Z,65.95
2019-01-22T18:45:32.755Z,63.68
2019-01-22T18:48:02.324Z,60.50
2019-01-22T18:50:30.905Z,61.40
2019-01-22T18:52:59.458Z,64.65
2019-01-22T18:55:28.012Z,65.40
2019-01-22T18:57:56.778Z,56.77
2019-01-22T19:00:25.334Z,63.90
2019-01-22T19:02:53.897Z,61.73
2019-01-22T19:05:22.646Z,72.37
2019-01-22T19:07:51.285Z,68.92
2019-01-22T19:10:28.214Z,59.67
2019-01-22T19:12:56.822Z,52.80
2019-01-22T19:15:25.443Z,69.17
2019-01-22T19:17:54.045Z,62.95
2019-01-22T19:20:22.588Z,56.58
2019-01-22T19:22:51.157Z,56.80
2019-01-22T19:25:21.977Z,60.67
2019-01-22T19:27:50.535Z,61.23
2019-01-22T19:30:44.606Z,69.05
2019-01-22T19:33:13.161Z,59.58
2019-01-22T19:35:41.693Z,65.50
2019-01-22T19:38:10.287Z,59.85
2019-01-22T19:40:38.914Z,58.00
2019-01-22T19:43:07.469Z,57.67
2019-01-22T19:45:36.124Z,58.60
2019-01-22T19:48:05.254Z,55.78
2019-01-22T19:50:33.957Z,63.55
2019-01-22T19:53:02.619Z,55.20
2019-01-22T19:55:31.170Z,53.40
2019-01-22T19:57:59.717Z,60.23
2019-01-22T20:00:36.006Z,73.00
2019-01-22T20:03:05.496Z,54.88
2019-01-22T20:05:34.199Z,50.80
2019-01-22T20:08:02.856Z,67.32
2019-01-22T20:10:31.415Z,70.08
2019-01-22T20:13:00.139Z,64.72
2019-01-22T20:15:28.763Z,56.80
2019-01-22T20:17:57.296Z,59.65
2019-01-22T20:20:25.848Z,68.02
2019-01-22T20:22:54.435Z,60.05
2019-01-22T20:25:22.985Z,65.97
2019-01-22T20:27:51.530Z,55.10
2019-01-22T20:30:26.255Z,60.00
2019-01-22T20:32:54.816Z,64.27
2019-01-22T20:35:23.367Z,58.87
2019-01-22T20:37:52.390Z,57.25
2019-01-22T20:40:21.017Z,62.40
2019-01-22T20:42:49.556Z,59.77
2019-01-22T20:45:23.451Z,60.25
2019-01-22T20:47:52.000Z,60.98
2019-01-22T20:50:20.568Z,63.95
2019-01-22T20:52:49.340Z,58.90
2019-01-22T20:55:20.346Z,65.30
2019-01-22T20:57:54.836Z,59.00
2019-01-22T21:00:23.380Z,52.13
2019-01-22T21:02:52.010Z,64.80
2019-01-22T21:05:25.950Z,57.62
2019-01-22T21:07:54.595Z,49.45
2019-01-22T21:10:25.770Z,61.53
2019-01-22T21:12:54.397Z,58.28
2019-01-22T21:15:23.004Z,57.30
2019-01-22T21:17:51.553Z,49.83
2019-01-22T21:20:20.842Z,63.80
2019-01-22T21:22:49.482Z,51.80
2019-01-22T21:25:22.595Z,71.30
2019-01-22T21:27:51.203Z,59.40
2019-01-22T21:30:22.973Z,59.38
2019-01-22T21:32:51.520Z,61.37
2019-01-22T21:35:20.069Z,59.70
2019-01-22T21:37:48.651Z,56.88
2019-01-22T21:40:17.702Z,54.83
2019-01-22T21:42:46.316Z,52.20
2019-01-22T21:45:23.882Z,58.45
2019-01-22T21:47:52.434Z,57.20
2019-01-22T21:50:20.980Z,55.88
2019-01-22T21:52:49.587Z,52.78
2019-01-22T21:55:20.499Z,64.32
2019-01-22T21:57:49.065Z,53.25
2019-01-22T22:00:25.393Z,54.70
2019-01-22T22:02:54.022Z,50.58
2019-01-22T22:05:25.177Z,49.88
2019-01-22T22:07:53.946Z,48.60
2019-01-22T22:10:22.562Z,50.58
2019-01-22T22:12:51.179Z,52.23
2019-01-22T22:15:25.483Z,52.60
2019-01-22T22:17:54.039Z,45.50
2019-01-22T22:20:22.650Z,56.77
2019-01-22T22:22:52.713Z,48.73
2019-01-22T22:25:22.933Z,65.45
2019-01-22T22:27:51.753Z,60.03
2019-01-22T22:30:34.628Z,54.83
2019-01-22T22:33:03.258Z,53.60
2019-01-22T22:35:31.978Z,49.48
2019-01-22T22:38:00.545Z,46.95
2019-01-22T22:40:29.082Z,46.23
2019-01-22T22:42:57.659Z,55.12
2019-01-22T22:45:26.290Z,50.92
2019-01-22T22:47:54.919Z,54.90
2019-01-22T22:50:29.146Z,47.53
2019-01-22T22:52:57.702Z,58.10
2019-01-22T22:55:26.255Z,50.28
2019-01-22T22:57:55.024Z,54.75
2019-01-22T23:00:43.245Z,63.60
2019-01-22T23:03:12.180Z,52.35
2019-01-22T23:05:40.729Z,64.75
2019-01-22T23:08:09.276Z,70.47
2019-01-22T23:10:37.946Z,55.20
2019-01-22T23:13:06.573Z,54.73
2019-01-22T23:15:35.120Z,62.03
2019-01-22T23:18:03.932Z,62.58
2019-01-22T23:20:32.475Z,56.70
2019-01-22T23:23:01.029Z,66.35
2019-01-22T23:25:29.613Z,68.80
2019-01-22T23:27:58.167Z,70.28
2019-01-22T23:30:26.779Z,68.70
2019-01-22T23:32:55.364Z,66.95
2019-01-22T23:35:23.990Z,78.37
2019-01-22T23:37:52.534Z,71.30
2019-01-22T23:40:21.120Z,69.55
2019-01-22T23:42:49.666Z,64.85
2019-01-22T23:45:18.207Z,87.70
2019-01-22T23:47:46.816Z,80.00
2019-01-22T23:50:15.947Z,86.00
2019-01-22T23:52:44.509Z,109.55
2019-01-22T23:55:13.630Z,95.45
2019-01-22T23:57:42.184Z,88.35
